Terminal Aerodrome Forecast
Issued by NWS Charleston, WV

Current Version | Previous Version | Graphics & Text | Print | Product List | Glossary On
Versions: 1 2 3 4 5 6 7 8 9 10 11 12 13 14 15 16 17 18 19 20 21
000
FTUS41 KRLX 260902 AAA
TAFHTS
TAF AMD
KHTS 260902Z 2609/2706 VRB03KT 5SM -RA BR SCT060 OVC070
     FM261000 00000KT 6SM BR OVC060
     FM261600 20007KT P6SM BKN050
     FM270000 20004KT P6SM VCSH SCT045
     FM270200 00000KT P6SM SCT070=

USA.gov is the U.S. government's official web portal to all federal, state and local government web resources and services.